Time;durP1;ratioP1;P1;durP2;ratioP2;P2;SDS_P1;SDS_P2;PMS_P1;PMS_P2;Temp;Humidity;BMP_temperature;BMP_pressure;BME280_temperature;BME280_humidity;BME280_pressure;Samples;Min_cycle;Max_cycle;Signal;HPM_P1;HPM_P2
2021/11/28 00:01:08;;;;;;;;;;;12.60;99.90;;;;;;5097955;28;1225;-53
2021/11/28 00:03:35;;;;;;;;;;;12.60;99.90;;;;;;5097659;28;1963;-53
2021/11/28 00:06:04;;;;;;;;;;;12.60;99.90;;;;;;5097602;28;776;-53
2021/11/28 00:11:28;;;;;;;;;;;12.60;99.90;;;;;;5116498;28;828;-53
2021/11/28 00:14:13;;;;;;;;;;;12.50;99.90;;;;;;5116597;28;1048;-53
2021/11/28 00:16:39;;;;;;;;;;;12.50;99.90;;;;;;5116243;28;1223;-53
2021/11/28 00:19:07;;;;;;;;;;;12.50;99.90;;;;;;5116437;28;828;-53
2021/11/28 00:21:34;;;;;;;;;;;12.50;99.90;;;;;;5116557;28;876;-53
2021/11/28 00:24:00;;;;;;;;;;;12.50;99.90;;;;;;5116241;28;1898;-53
2021/11/28 00:26:27;;;;;;;;;;;12.50;99.90;;;;;;5116545;28;815;-53
2021/11/28 00:28:53;;;;;;;;;;;12.50;99.90;;;;;;5097398;28;1208;-53
2021/11/28 00:31:19;;;;;;;;;;;12.50;99.90;;;;;;5100970;28;1502;-53
2021/11/28 00:33:45;;;;;;;;;;;12.50;99.90;;;;;;5099694;28;895;-53
2021/11/28 00:36:11;;;;;;;;;;;12.40;99.90;;;;;;5116229;28;864;-53
2021/11/28 00:38:38;;;;;;;;;;;12.40;99.90;;;;;;5116260;28;847;-53
2021/11/28 00:41:06;;;;;;;;;;;12.40;99.90;;;;;;5115906;28;905;-53
2021/11/28 00:43:33;;;;;;;;;;;12.40;99.90;;;;;;5097590;28;1909;-53
2021/11/28 00:45:59;;;;;;;;;;;12.40;99.90;;;;;;5116049;28;867;-54
2021/11/28 00:48:29;;;;;;;;;;;12.40;99.90;;;;;;5115960;28;895;-53
2021/11/28 00:51:21;;;;;;;;;;;12.40;99.90;;;;;;5097567;28;895;-53
2021/11/28 00:53:42;;;;;;;;;;;12.40;99.90;;;;;;5115777;28;1603;-52
2021/11/28 00:56:08;;;;;;;;;;;12.40;99.90;;;;;;5115758;28;1272;-51
2021/11/28 00:58:34;;;;;;;;;;;12.40;99.90;;;;;;5115861;28;835;-52
2021/11/28 01:01:00;;;;;;;;;;;12.30;99.90;;;;;;5115307;28;1007;-51
2021/11/28 01:03:26;;;;;;;;;;;12.30;99.90;;;;;;5115662;28;1918;-51
2021/11/28 01:05:53;;;;;;;;;;;12.30;99.90;;;;;;5097924;28;1127;-51
2021/11/28 01:08:21;;;;;;;;;;;12.30;99.90;;;;;;5115076;28;947;-51
2021/11/28 01:10:49;;;;;;;;;;;12.30;99.90;;;;;;5097945;28;806;-52
2021/11/28 01:13:17;;;;;;;;;;;12.30;99.90;;;;;;5114982;28;996;-52
2021/11/28 01:15:45;;;;;;;;;;;12.30;99.90;;;;;;5097750;28;954;-52
2021/11/28 01:18:11;;;;;;;;;;;12.30;99.90;;;;;;5115486;28;1632;-52
2021/11/28 01:20:37;;;;;;;;;;;12.20;99.90;;;;;;5115539;28;947;-52
2021/11/28 01:23:03;;;;;;;;;;;12.20;99.90;;;;;;5115200;28;1902;-52
2021/11/28 01:25:29;;;;;;;;;;;12.20;99.90;;;;;;5115312;28;884;-52
2021/11/28 01:27:55;;;;;;;;;;;12.20;99.90;;;;;;5114967;28;1021;-52
2021/11/28 01:30:21;;;;;;;;;;;12.20;99.90;;;;;;5115931;28;838;-52
2021/11/28 01:32:49;;;;;;;;;;;12.20;99.90;;;;;;5096683;28;935;-52
2021/11/28 01:35:16;;;;;;;;;;;12.10;99.90;;;;;;5081104;28;1036;-52
2021/11/28 01:37:44;;;;;;;;;;;12.10;99.90;;;;;;5115396;28;816;-52
2021/11/28 01:40:12;;;;;;;;;;;12.10;99.90;;;;;;5096939;28;1030;-52
2021/11/28 01:42:40;;;;;;;;;;;12.10;99.90;;;;;;5080083;28;1068;-52
2021/11/28 01:45:07;;;;;;;;;;;12.10;99.90;;;;;;5115357;28;1957;-52
2021/11/28 01:47:33;;;;;;;;;;;12.10;99.90;;;;;;5119286;28;905;-52
2021/11/28 01:49:59;;;;;;;;;;;12.10;99.90;;;;;;5119409;28;848;-52
2021/11/28 01:52:25;;;;;;;;;;;12.10;99.90;;;;;;5119393;28;861;-52
2021/11/28 01:54:54;;;;;;;;;;;12.00;99.90;;;;;;5119076;28;840;-52
2021/11/28 01:57:21;;;;;;;;;;;12.00;99.90;;;;;;5100130;28;1282;-52
2021/11/28 01:59:49;;;;;;;;;;;12.00;99.90;;;;;;5100712;28;829;-52
2021/11/28 02:02:15;;;;;;;;;;;12.00;99.90;;;;;;5100682;28;820;-52
2021/11/28 02:04:42;;;;;;;;;;;12.00;99.90;;;;;;5100350;28;1914;-52
2021/11/28 02:07:08;;;;;;;;;;;12.00;99.90;;;;;;5100437;28;871;-52
2021/11/28 02:09:36;;;;;;;;;;;12.00;99.90;;;;;;5100215;28;889;-53
2021/11/28 02:12:02;;;;;;;;;;;12.00;99.90;;;;;;5100245;28;986;-53
2021/11/28 02:14:28;;;;;;;;;;;11.90;99.90;;;;;;5100091;28;1149;-53
2021/11/28 02:16:55;;;;;;;;;;;11.90;99.90;;;;;;5100227;28;897;-53
2021/11/28 02:19:22;;;;;;;;;;;11.90;99.90;;;;;;5100168;28;958;-53
2021/11/28 02:21:50;;;;;;;;;;;11.90;99.90;;;;;;5099578;28;936;-52
2021/11/28 02:24:16;;;;;;;;;;;11.90;99.90;;;;;;5064866;28;1910;-52
2021/11/28 02:26:42;;;;;;;;;;;11.90;99.90;;;;;;5106565;28;1026;-52
2021/11/28 02:29:08;;;;;;;;;;;11.80;99.90;;;;;;5118588;28;828;-52
2021/11/28 02:31:34;;;;;;;;;;;11.80;99.90;;;;;;5118522;28;826;-52
2021/11/28 02:34:00;;;;;;;;;;;11.80;99.90;;;;;;5117909;28;1189;-52
2021/11/28 02:36:27;;;;;;;;;;;11.80;99.90;;;;;;5103779;28;1447;-52
2021/11/28 02:38:54;;;;;;;;;;;11.80;99.90;;;;;;5099463;28;903;-52
2021/11/28 02:41:21;;;;;;;;;;;11.80;99.90;;;;;;5099685;28;855;-52
2021/11/28 02:43:47;;;;;;;;;;;11.70;99.90;;;;;;5099929;28;1886;-52
2021/11/28 02:46:14;;;;;;;;;;;11.70;99.90;;;;;;5099557;28;927;-52
2021/11/28 02:48:40;;;;;;;;;;;11.70;99.90;;;;;;5099808;28;863;-52
2021/11/28 02:51:06;;;;;;;;;;;11.70;99.90;;;;;;5099975;28;1023;-52
2021/11/28 02:53:33;;;;;;;;;;;11.70;99.90;;;;;;5081926;28;985;-51
2021/11/28 02:56:04;;;;;;;;;;;11.70;99.90;;;;;;5106491;28;1072;-52
2021/11/28 02:58:30;;;;;;;;;;;11.70;99.90;;;;;;5117315;28;939;-52
2021/11/28 03:00:59;;;;;;;;;;;11.70;99.90;;;;;;5104501;28;961;-52
2021/11/28 03:03:26;;;;;;;;;;;11.70;99.90;;;;;;5099137;28;1914;-52
2021/11/28 03:05:53;;;;;;;;;;;11.70;99.90;;;;;;5099395;28;1035;-52
2021/11/28 03:08:21;;;;;;;;;;;11.70;99.90;;;;;;5099178;28;882;-52
2021/11/28 03:10:48;;;;;;;;;;;11.70;99.90;;;;;;5081295;28;954;-51
2021/11/28 03:13:23;;;;;;;;;;;11.60;99.90;;;;;;5080749;28;1012;-52
2021/11/28 03:15:50;;;;;;;;;;;11.70;99.90;;;;;;5079640;28;1063;-52
2021/11/28 03:18:18;;;;;;;;;;;11.60;99.90;;;;;;5098961;28;923;-52
2021/11/28 03:20:44;;;;;;;;;;;11.60;99.90;;;;;;5098969;28;929;-52
2021/11/28 03:23:13;;;;;;;;;;;11.60;99.90;;;;;;5098769;28;833;-52
2021/11/28 03:25:39;;;;;;;;;;;11.60;99.90;;;;;;5083437;28;1902;-52
2021/11/28 03:28:05;;;;;;;;;;;11.60;99.90;;;;;;5117116;28;928;-52
2021/11/28 03:30:31;;;;;;;;;;;11.60;99.90;;;;;;5117615;28;840;-52
2021/11/28 03:32:58;;;;;;;;;;;11.60;99.90;;;;;;5101969;28;1026;-52
2021/11/28 03:35:25;;;;;;;;;;;11.60;99.90;;;;;;5098753;28;1039;-52
2021/11/28 03:37:52;;;;;;;;;;;11.60;99.90;;;;;;5098422;28;919;-52
2021/11/28 03:40:18;;;;;;;;;;;11.50;99.90;;;;;;5098419;28;816;-52
2021/11/28 03:42:44;;;;;;;;;;;11.50;99.90;;;;;;5098454;28;928;-52
2021/11/28 03:45:12;;;;;;;;;;;11.50;99.90;;;;;;5098365;28;1965;-52
2021/11/28 03:47:38;;;;;;;;;;;11.50;99.90;;;;;;5098510;28;966;-52
2021/11/28 03:50:05;;;;;;;;;;;11.50;99.90;;;;;;5098303;28;830;-52
2021/11/28 03:52:31;;;;;;;;;;;11.50;99.90;;;;;;5098357;28;835;-52
2021/11/28 03:54:58;;;;;;;;;;;11.50;99.90;;;;;;5098921;28;859;-52
2021/11/28 03:57:24;;;;;;;;;;;11.50;99.90;;;;;;5116814;28;1105;-52
2021/11/28 03:59:51;;;;;;;;;;;11.50;99.90;;;;;;5116475;28;881;-52
2021/11/28 04:02:17;;;;;;;;;;;11.50;99.90;;;;;;5116790;28;886;-52
2021/11/28 04:04:43;;;;;;;;;;;11.40;99.90;;;;;;5098742;28;1979;-52
2021/11/28 04:07:09;;;;;;;;;;;11.40;99.90;;;;;;5107866;28;875;-53
2021/11/28 04:09:36;;;;;;;;;;;11.40;99.90;;;;;;5097677;28;1043;-53
2021/11/28 04:12:02;;;;;;;;;;;11.40;99.90;;;;;;5097783;28;916;-53
2021/11/28 04:14:29;;;;;;;;;;;11.40;99.90;;;;;;5097752;28;903;-53
2021/11/28 04:16:56;;;;;;;;;;;11.40;99.90;;;;;;5086332;28;1368;-54
2021/11/28 04:19:23;;;;;;;;;;;11.40;99.90;;;;;;5099581;28;937;-53
2021/11/28 04:21:49;;;;;;;;;;;11.40;99.90;;;;;;5097660;28;965;-53
2021/11/28 04:24:15;;;;;;;;;;;11.40;99.90;;;;;;5097870;28;1914;-53
2021/11/28 04:26:41;;;;;;;;;;;11.30;99.90;;;;;;5106143;28;1394;-53
2021/11/28 04:29:07;;;;;;;;;;;11.30;99.90;;;;;;5103675;28;938;-53
2021/11/28 04:31:33;;;;;;;;;;;11.30;99.90;;;;;;5097586;28;917;-54
2021/11/28 04:34:00;;;;;;;;;;;11.30;99.90;;;;;;5097550;28;888;-53
2021/11/28 04:36:28;;;;;;;;;;;11.30;99.90;;;;;;5097191;28;921;-53
2021/11/28 04:38:53;;;;;;;;;;;11.30;99.90;;;;;;5096691;28;884;-53
2021/11/28 04:41:20;;;;;;;;;;;11.30;99.90;;;;;;5097489;28;879;-53
2021/11/28 04:43:46;;;;;;;;;;;11.20;99.90;;;;;;5097491;28;1913;-53
2021/11/28 04:46:12;;;;;;;;;;;11.20;99.90;;;;;;5103260;28;1300;-54
2021/11/28 04:48:38;;;;;;;;;;;11.20;99.90;;;;;;5116471;28;895;-53
2021/11/28 04:51:04;;;;;;;;;;;11.20;99.90;;;;;;5115937;28;805;-53
2021/11/28 04:53:30;;;;;;;;;;;11.20;99.90;;;;;;5115546;28;928;-53
2021/11/28 04:55:57;;;;;;;;;;;11.20;99.90;;;;;;5115771;28;1227;-53
2021/11/28 04:58:23;;;;;;;;;;;11.20;99.90;;;;;;5115663;28;861;-52
2021/11/28 05:00:49;;;;;;;;;;;11.20;99.90;;;;;;5115742;28;875;-51
2021/11/28 05:03:15;;;;;;;;;;;11.10;99.90;;;;;;5115750;28;875;-51
2021/11/28 05:05:41;;;;;;;;;;;11.10;99.90;;;;;;5115605;28;1960;-51
2021/11/28 05:08:07;;;;;;;;;;;11.10;99.90;;;;;;5115549;28;895;-51
2021/11/28 05:10:34;;;;;;;;;;;11.10;99.90;;;;;;5115607;28;788;-51
2021/11/28 05:13:01;;;;;;;;;;;11.10;99.90;;;;;;5115688;28;1232;-51
2021/11/28 05:15:29;;;;;;;;;;;11.10;99.90;;;;;;5115631;28;868;-51
2021/11/28 05:17:56;;;;;;;;;;;11.10;99.90;;;;;;5115645;28;1011;-51
2021/11/28 05:20:22;;;;;;;;;;;11.10;99.90;;;;;;5097267;28;942;-51
2021/11/28 05:22:48;;;;;;;;;;;11.00;99.90;;;;;;5097569;28;931;-51
2021/11/28 05:25:14;;;;;;;;;;;11.00;99.90;;;;;;5115270;28;1977;-51
2021/11/28 05:27:42;;;;;;;;;;;11.00;99.90;;;;;;5114993;28;1260;-51
2021/11/28 05:30:08;;;;;;;;;;;11.10;99.90;;;;;;5115017;28;923;-51
2021/11/28 05:32:35;;;;;;;;;;;11.10;99.90;;;;;;5115682;28;801;-51
2021/11/28 05:35:01;;;;;;;;;;;11.10;99.90;;;;;;5115702;28;977;-51
2021/11/28 05:37:29;;;;;;;;;;;11.10;99.90;;;;;;5115202;28;959;-51
2021/11/28 05:39:55;;;;;;;;;;;11.10;99.90;;;;;;5115154;28;946;-51
2021/11/28 05:42:23;;;;;;;;;;;11.20;99.90;;;;;;5115340;28;935;-51
2021/11/28 05:44:49;;;;;;;;;;;11.20;99.90;;;;;;5115179;28;1973;-51
2021/11/28 05:47:15;;;;;;;;;;;11.30;99.90;;;;;;5115560;28;869;-51
2021/11/28 05:49:41;;;;;;;;;;;11.30;99.90;;;;;;5114844;28;856;-51
2021/11/28 05:52:07;;;;;;;;;;;11.40;99.90;;;;;;5097047;28;1130;-52
2021/11/28 05:54:34;;;;;;;;;;;11.40;99.90;;;;;;5115387;28;891;-51
2021/11/28 05:57:01;;;;;;;;;;;11.50;99.90;;;;;;5112630;28;1020;-51
2021/11/28 05:59:29;;;;;;;;;;;11.60;99.90;;;;;;5115344;28;943;-51
2021/11/28 06:01:55;;;;;;;;;;;11.70;99.90;;;;;;5115466;28;963;-51
2021/11/28 06:04:21;;;;;;;;;;;11.70;99.90;;;;;;5115172;28;1906;-51
2021/11/28 06:06:47;;;;;;;;;;;11.80;99.90;;;;;;5115059;28;994;-51
2021/11/28 06:09:13;;;;;;;;;;;11.90;99.90;;;;;;5114950;28;936;-51
2021/11/28 06:11:39;;;;;;;;;;;12.00;99.90;;;;;;5114909;28;911;-51
2021/11/28 06:14:06;;;;;;;;;;;12.10;99.90;;;;;;5114623;28;958;-51
2021/11/28 06:16:35;;;;;;;;;;;12.10;99.90;;;;;;5115363;28;897;-52
2021/11/28 06:19:00;;;;;;;;;;;12.20;99.90;;;;;;5114877;28;872;-51
2021/11/28 06:21:27;;;;;;;;;;;12.30;99.90;;;;;;5114982;28;977;-51
2021/11/28 06:23:53;;;;;;;;;;;12.30;99.90;;;;;;5114693;28;1906;-51
2021/11/28 06:26:19;;;;;;;;;;;12.40;99.90;;;;;;5115107;28;831;-51
2021/11/28 06:28:45;;;;;;;;;;;12.50;99.90;;;;;;5114877;28;927;-51
2021/11/28 06:31:10;;;;;;;;;;;12.50;99.90;;;;;;5114819;28;837;-51
2021/11/28 06:33:37;;;;;;;;;;;12.60;99.90;;;;;;5117641;28;848;-51
2021/11/28 06:36:04;;;;;;;;;;;12.60;99.90;;;;;;5118843;28;858;-51
2021/11/28 06:38:31;;;;;;;;;;;12.60;99.90;;;;;;5118573;28;894;-51
2021/11/28 06:40:57;;;;;;;;;;;12.70;99.90;;;;;;5118345;28;890;-51
2021/11/28 06:43:23;;;;;;;;;;;12.70;99.90;;;;;;5089446;28;1487;-51
2021/11/28 06:45:50;;;;;;;;;;;12.80;99.90;;;;;;5118287;28;1975;-51
2021/11/28 06:48:16;;;;;;;;;;;12.80;99.90;;;;;;5118191;28;1044;-51
2021/11/28 06:50:42;;;;;;;;;;;12.80;99.90;;;;;;5118219;28;1094;-52
2021/11/28 06:53:09;;;;;;;;;;;12.90;99.90;;;;;;5118107;28;1633;-52
2021/11/28 06:55:36;;;;;;;;;;;12.90;99.90;;;;;;5118566;28;1116;-52
2021/11/28 06:58:02;;;;;;;;;;;13.00;99.90;;;;;;5118364;28;912;-53
2021/11/28 07:00:28;;;;;;;;;;;13.00;99.90;;;;;;5118324;28;895;-52
2021/11/28 07:02:54;;;;;;;;;;;13.00;99.90;;;;;;5118173;28;967;-52
2021/11/28 07:05:20;;;;;;;;;;;13.00;99.90;;;;;;5118016;28;1979;-52
2021/11/28 07:07:49;;;;;;;;;;;13.10;99.90;;;;;;5099268;28;842;-52
2021/11/28 07:10:19;;;;;;;;;;;13.10;99.90;;;;;;5087322;28;930;-51
2021/11/28 07:12:45;;;;;;;;;;;13.10;99.90;;;;;;5106063;28;816;-51
2021/11/28 07:15:12;;;;;;;;;;;13.10;99.90;;;;;;5099059;28;946;-51
2021/11/28 07:17:38;;;;;;;;;;;13.20;99.90;;;;;;5098963;28;914;-51
2021/11/28 07:20:04;;;;;;;;;;;13.20;99.90;;;;;;5098961;28;863;-51
2021/11/28 07:22:30;;;;;;;;;;;13.30;99.90;;;;;;5098664;28;916;-52
2021/11/28 07:24:56;;;;;;;;;;;13.40;99.90;;;;;;5099295;28;1965;-52
2021/11/28 07:27:24;;;;;;;;;;;13.50;99.90;;;;;;5117548;28;812;-52
2021/11/28 07:29:50;;;;;;;;;;;13.60;99.90;;;;;;5098081;28;867;-52
2021/11/28 07:32:16;;;;;;;;;;;13.80;99.90;;;;;;5100205;28;1002;-53
2021/11/28 07:34:42;;;;;;;;;;;13.90;99.90;;;;;;5098625;28;831;-53
2021/11/28 07:37:08;;;;;;;;;;;14.00;99.90;;;;;;5097216;28;1629;-52
2021/11/28 07:39:34;;;;;;;;;;;14.00;99.90;;;;;;5098403;28;887;-52
2021/11/28 07:42:00;;;;;;;;;;;14.10;99.90;;;;;;5097701;28;1101;-51
2021/11/28 07:44:26;;;;;;;;;;;14.10;99.90;;;;;;5097944;28;1913;-51
2021/11/28 07:46:52;;;;;;;;;;;14.10;99.90;;;;;;5098386;28;865;-52
2021/11/28 07:49:22;;;;;;;;;;;14.00;99.90;;;;;;5098625;28;865;-52
2021/11/28 07:51:50;;;;;;;;;;;14.00;99.90;;;;;;5098489;28;1020;-52
2021/11/28 07:54:18;;;;;;;;;;;14.00;99.90;;;;;;5097970;28;1142;-52
2021/11/28 07:56:44;;;;;;;;;;;14.00;99.90;;;;;;5112472;28;1229;-52
2021/11/28 07:59:11;;;;;;;;;;;14.00;99.90;;;;;;5098679;28;1032;-51
2021/11/28 08:01:37;;;;;;;;;;;14.10;99.90;;;;;;5117200;28;896;-51
2021/11/28 08:04:03;;;;;;;;;;;14.10;99.90;;;;;;5116995;28;1972;-51
2021/11/28 08:06:29;;;;;;;;;;;14.20;99.90;;;;;;5116821;28;836;-51
2021/11/28 08:08:56;;;;;;;;;;;14.30;99.90;;;;;;5116929;28;847;-51
2021/11/28 08:11:24;;;;;;;;;;;14.30;99.90;;;;;;5116454;28;892;-52
2021/11/28 08:13:51;;;;;;;;;;;14.40;99.90;;;;;;5098725;28;931;-51
2021/11/28 08:16:19;;;;;;;;;;;14.40;99.90;;;;;;5116607;28;926;-52
2021/11/28 08:18:45;;;;;;;;;;;14.40;99.90;;;;;;5098834;28;981;-53
2021/11/28 08:21:11;;;;;;;;;;;14.50;99.90;;;;;;5105340;28;922;-51
2021/11/28 08:23:37;;;;;;;;;;;14.50;99.90;;;;;;5097582;28;840;-52
2021/11/28 08:26:03;;;;;;;;;;;14.50;99.90;;;;;;5107113;28;1901;-52
2021/11/28 08:28:29;;;;;;;;;;;14.50;99.90;;;;;;5116190;28;988;-52
2021/11/28 08:30:57;;;;;;;;;;;14.40;99.90;;;;;;5115042;28;897;-51
2021/11/28 08:33:24;;;;;;;;;;;14.40;99.90;;;;;;5097714;28;921;-51
2021/11/28 08:35:51;;;;;;;;;;;14.30;99.90;;;;;;5116538;28;831;-51
2021/11/28 08:38:18;;;;;;;;;;;14.30;99.90;;;;;;5116307;28;895;-51
2021/11/28 08:40:44;;;;;;;;;;;14.20;99.90;;;;;;5115942;28;888;-51
2021/11/28 08:43:10;;;;;;;;;;;14.10;99.90;;;;;;5116195;28;838;-51
2021/11/28 08:45:36;;;;;;;;;;;14.10;99.90;;;;;;5115431;28;1902;-51
2021/11/28 08:48:02;;;;;;;;;;;14.00;99.90;;;;;;5110468;28;1276;-52
2021/11/28 08:50:28;;;;;;;;;;;14.00;99.90;;;;;;5097369;28;929;-51
2021/11/28 08:52:56;;;;;;;;;;;14.00;99.90;;;;;;5097320;28;812;-51
2021/11/28 08:55:23;;;;;;;;;;;14.00;99.90;;;;;;5100164;28;1140;-51
2021/11/28 08:57:50;;;;;;;;;;;13.90;99.90;;;;;;5115584;28;1234;-51
2021/11/28 09:00:16;;;;;;;;;;;13.90;99.90;;;;;;5115885;28;939;-53
2021/11/28 09:02:43;;;;;;;;;;;13.80;99.90;;;;;;5097508;28;1434;-52
2021/11/28 09:05:11;;;;;;;;;;;13.80;99.90;;;;;;5115935;28;1905;-52
2021/11/28 09:07:37;;;;;;;;;;;13.80;99.90;;;;;;5097890;28;967;-52
2021/11/28 09:10:03;;;;;;;;;;;13.80;99.90;;;;;;5115421;28;921;-53
2021/11/28 09:12:30;;;;;;;;;;;13.80;99.90;;;;;;5115632;28;831;-52
2021/11/28 09:14:57;;;;;;;;;;;13.90;99.90;;;;;;5115530;28;1137;-52
2021/11/28 09:17:24;;;;;;;;;;;13.90;99.90;;;;;;5115882;28;872;-52
2021/11/28 09:20:04;;;;;;;;;;;13.90;99.90;;;;;;5097337;28;929;-52
2021/11/28 09:24:35;;;;;;;;;;;14.00;99.90;;;;;;5115625;28;947;-52
2021/11/28 09:25:17;;;;;;;;;;;14.00;99.90;;;;;;5113866;28;1910;-52
2021/11/28 09:27:44;;;;;;;;;;;14.10;99.90;;;;;;5097239;28;997;-53
2021/11/28 09:30:11;;;;;;;;;;;14.10;99.90;;;;;;5096693;28;856;-52
2021/11/28 09:32:36;;;;;;;;;;;14.20;99.90;;;;;;5078741;28;933;-52
2021/11/28 09:35:03;;;;;;;;;;;14.20;99.90;;;;;;5078969;28;864;-52
2021/11/28 09:37:31;;;;;;;;;;;14.20;99.90;;;;;;5096569;28;906;-52
2021/11/28 09:39:59;;;;;;;;;;;14.20;99.90;;;;;;5096214;28;880;-52
2021/11/28 09:42:28;;;;;;;;;;;14.20;99.90;;;;;;5096797;28;785;-52
2021/11/28 09:44:58;;;;;;;;;;;14.20;99.90;;;;;;5096570;28;1969;-53
2021/11/28 09:47:26;;;;;;;;;;;14.20;99.90;;;;;;5078155;28;876;-52
2021/11/28 09:49:57;;;;;;;;;;;14.10;99.90;;;;;;5096436;28;888;-52
2021/11/28 09:52:28;;;;;;;;;;;14.10;99.90;;;;;;5084016;28;781;-52
2021/11/28 09:54:57;;;;;;;;;;;14.10;99.90;;;;;;5110563;28;1340;-52
2021/11/28 09:57:24;;;;;;;;;;;14.00;99.90;;;;;;5106642;28;1182;-53
2021/11/28 09:59:51;;;;;;;;;;;14.00;99.90;;;;;;5096684;28;976;-52
2021/11/28 10:02:23;;;;;;;;;;;14.00;99.90;;;;;;5096584;28;868;-52
2021/11/28 10:04:49;;;;;;;;;;;13.90;99.90;;;;;;5111532;28;1914;-51
2021/11/28 10:07:16;;;;;;;;;;;13.90;99.90;;;;;;5099059;28;1130;-52
2021/11/28 10:09:43;;;;;;;;;;;13.80;99.90;;;;;;5119358;28;940;-52
2021/11/28 10:12:24;;;;;;;;;;;13.80;99.90;;;;;;5108129;28;1388;-52
2021/11/28 10:14:52;;;;;;;;;;;13.80;99.90;;;;;;5103667;28;863;-53
2021/11/28 10:17:19;;;;;;;;;;;13.70;99.90;;;;;;5081896;28;891;-53
2021/11/28 10:19:45;;;;;;;;;;;13.70;99.90;;;;;;5081045;28;1030;-52
2021/11/28 10:22:11;;;;;;;;;;;13.60;99.90;;;;;;5100143;28;805;-51
2021/11/28 10:24:48;;;;;;;;;;;13.60;99.90;;;;;;5100177;28;1902;-51
2021/11/28 10:27:14;;;;;;;;;;;13.60;99.90;;;;;;5118105;28;1129;-51
2021/11/28 10:29:41;;;;;;;;;;;13.50;99.90;;;;;;5118615;28;874;-51
2021/11/28 10:32:08;;;;;;;;;;;13.50;99.90;;;;;;5118305;28;1151;-51
2021/11/28 10:34:36;;;;;;;;;;;13.50;99.90;;;;;;5117996;28;896;-51
2021/11/28 10:37:21;;;;;;;;;;;13.60;99.90;;;;;;5118160;28;881;-51
2021/11/28 10:40:00;;;;;;;;;;;13.60;99.90;;;;;;5116943;28;937;-51
2021/11/28 10:42:27;;;;;;;;;;;13.60;99.90;;;;;;5118201;28;836;-51
2021/11/28 10:45:06;;;;;;;;;;;13.60;99.90;;;;;;5118347;28;1898;-51
2021/11/28 10:47:41;;;;;;;;;;;13.70;99.90;;;;;;5118502;28;942;-51
2021/11/28 10:50:09;;;;;;;;;;;13.70;99.90;;;;;;5118658;28;859;-51
2021/11/28 10:52:35;;;;;;;;;;;13.80;99.90;;;;;;5117852;28;896;-51
2021/11/28 10:55:09;;;;;;;;;;;13.80;99.90;;;;;;5118184;28;773;-51
2021/11/28 10:57:35;;;;;;;;;;;13.90;99.90;;;;;;5117784;28;1349;-51
2021/11/28 11:00:03;;;;;;;;;;;14.00;99.90;;;;;;5099304;28;944;-51
2021/11/28 11:02:32;;;;;;;;;;;14.00;99.90;;;;;;5099451;28;869;-51
2021/11/28 11:04:59;;;;;;;;;;;14.00;99.90;;;;;;5099212;28;1902;-51
2021/11/28 11:07:26;;;;;;;;;;;14.00;99.90;;;;;;5099281;28;820;-51
2021/11/28 11:09:53;;;;;;;;;;;14.00;99.90;;;;;;5099042;28;954;-51
2021/11/28 11:12:22;;;;;;;;;;;14.00;99.90;;;;;;5098729;28;1055;-51
2021/11/28 11:14:49;;;;;;;;;;;14.00;99.90;;;;;;5118100;28;927;-52
2021/11/28 11:17:15;;;;;;;;;;;14.00;99.90;;;;;;5117621;28;883;-52
2021/11/28 11:19:50;;;;;;;;;;;14.00;99.90;;;;;;5117272;28;910;-51
2021/11/28 11:22:19;;;;;;;;;;;14.00;99.90;;;;;;5117280;28;906;-51
2021/11/28 11:24:51;;;;;;;;;;;13.90;99.90;;;;;;5117070;28;1898;-51
2021/11/28 11:27:22;;;;;;;;;;;13.90;99.90;;;;;;5102022;28;871;-51
2021/11/28 11:29:56;;;;;;;;;;;13.90;99.90;;;;;;5098812;28;882;-51
2021/11/28 11:32:24;;;;;;;;;;;13.80;99.90;;;;;;5098392;28;1007;-51
2021/11/28 11:34:54;;;;;;;;;;;13.80;99.90;;;;;;5099005;28;868;-51
2021/11/28 11:37:21;;;;;;;;;;;13.80;99.90;;;;;;5081091;28;805;-51
2021/11/28 11:39:48;;;;;;;;;;;13.80;99.90;;;;;;5098067;28;828;-51
2021/11/28 11:42:16;;;;;;;;;;;13.70;99.90;;;;;;5098404;28;808;-51
2021/11/28 11:44:44;;;;;;;;;;;13.70;99.90;;;;;;5097972;28;1965;-51
2021/11/28 11:47:10;;;;;;;;;;;13.70;99.90;;;;;;5098336;28;920;-51
2021/11/28 11:49:38;;;;;;;;;;;13.60;99.90;;;;;;5098460;28;962;-51
2021/11/28 11:52:05;;;;;;;;;;;13.60;99.90;;;;;;5102213;28;871;-51
2021/11/28 11:54:33;;;;;;;;;;;13.60;99.90;;;;;;5116962;28;886;-51
2021/11/28 11:57:09;;;;;;;;;;;13.50;99.90;;;;;;5079178;28;1473;-51
2021/11/28 11:59:54;;;;;;;;;;;13.50;99.90;;;;;;5078297;28;891;-51
2021/11/28 12:02:30;;;;;;;;;;;13.50;99.90;;;;;;5090821;28;892;-51
2021/11/28 12:04:57;;;;;;;;;;;13.50;99.90;;;;;;5096917;28;1963;-51
2021/11/28 12:07:41;;;;;;;;;;;13.40;99.90;;;;;;5096835;28;985;-52
2021/11/28 12:10:25;;;;;;;;;;;13.40;99.90;;;;;;5096814;28;886;-51
2021/11/28 12:12:52;;;;;;;;;;;13.30;99.90;;;;;;5096492;28;869;-51
2021/11/28 12:15:20;;;;;;;;;;;13.30;99.90;;;;;;5096431;28;847;-51
2021/11/28 12:17:46;;;;;;;;;;;13.30;99.90;;;;;;5096253;28;825;-52
2021/11/28 12:20:15;;;;;;;;;;;13.30;99.90;;;;;;5096092;28;982;-52
2021/11/28 12:22:45;;;;;;;;;;;13.30;99.90;;;;;;5095669;28;1114;-51
2021/11/28 12:25:30;;;;;;;;;;;13.30;99.90;;;;;;5095890;28;1902;-51
2021/11/28 12:27:56;;;;;;;;;;;13.30;99.90;;;;;;5096200;28;858;-51
2021/11/28 12:30:32;;;;;;;;;;;13.30;99.90;;;;;;5096275;28;875;-51
2021/11/28 12:32:58;;;;;;;;;;;13.40;99.90;;;;;;5096211;28;947;-51
2021/11/28 12:35:50;;;;;;;;;;;13.40;99.90;;;;;;5095809;28;886;-51
2021/11/28 12:38:36;;;;;;;;;;;13.50;99.90;;;;;;5094330;28;1840;-51
2021/11/28 12:41:02;;;;;;;;;;;13.50;99.90;;;;;;5095583;28;1134;-52
2021/11/28 12:43:27;;;;;;;;;;;13.60;99.90;;;;;;5094995;28;1206;-52
2021/11/28 12:45:53;;;;;;;;;;;13.70;99.90;;;;;;5095835;28;1982;-52
2021/11/28 12:48:21;;;;;;;;;;;13.60;99.90;;;;;;5095953;28;928;-52
2021/11/28 12:50:51;;;;;;;;;;;13.70;99.90;;;;;;5095546;28;962;-51
2021/11/28 12:53:37;;;;;;;;;;;13.60;99.90;;;;;;5095572;28;869;-51
2021/11/28 12:56:13;;;;;;;;;;;13.60;99.90;;;;;;5100299;28;1211;-52
2021/11/28 12:58:57;;;;;;;;;;;13.60;99.90;;;;;;5115622;28;995;-51
2021/11/28 13:01:58;;;;;;;;;;;13.60;99.90;;;;;;5131658;27;1032;-51
2021/11/28 13:04:39;;;;;;;;;;;13.60;99.90;;;;;;5079575;28;1640;-52
2021/11/28 13:07:24;;;;;;;;;;;13.60;99.90;;;;;;5115693;28;1975;-51
2021/11/28 13:09:54;;;;;;;;;;;13.60;99.90;;;;;;5115564;28;898;-51
2021/11/28 13:12:24;;;;;;;;;;;13.50;99.90;;;;;;5115470;28;831;-52
2021/11/28 13:14:50;;;;;;;;;;;13.50;99.90;;;;;;5115609;28;827;-52
2021/11/28 13:17:20;;;;;;;;;;;13.50;99.90;;;;;;5115588;28;912;-52
2021/11/28 13:19:47;;;;;;;;;;;13.40;99.90;;;;;;5115511;28;889;-52
2021/11/28 13:22:16;;;;;;;;;;;13.40;99.90;;;;;;5115787;28;1092;-52
2021/11/28 13:24:42;;;;;;;;;;;13.40;99.90;;;;;;5115431;28;899;-53
2021/11/28 13:27:09;;;;;;;;;;;13.40;99.90;;;;;;5115314;28;1901;-53
2021/11/28 13:29:35;;;;;;;;;;;13.40;99.90;;;;;;5115363;28;985;-54
2021/11/28 13:32:11;;;;;;;;;;;13.40;99.90;;;;;;5115209;28;994;-54
2021/11/28 13:34:37;;;;;;;;;;;13.30;99.90;;;;;;5097195;28;864;-53
2021/11/28 13:37:03;;;;;;;;;;;13.30;99.90;;;;;;5096763;28;887;-54
2021/11/28 13:39:30;;;;;;;;;;;13.30;99.90;;;;;;5096792;28;918;-54
2021/11/28 13:41:56;;;;;;;;;;;13.20;99.90;;;;;;5098641;28;938;-53
2021/11/28 13:44:24;;;;;;;;;;;13.20;99.90;;;;;;5083198;28;985;-53
2021/11/28 13:46:52;;;;;;;;;;;13.20;99.90;;;;;;5100619;28;1906;-53
2021/11/28 13:49:25;;;;;;;;;;;13.20;99.90;;;;;;5101126;28;1035;-53
2021/11/28 13:51:55;;;;;;;;;;;13.20;99.90;;;;;;5100605;28;869;-53
2021/11/28 13:54:36;;;;;;;;;;;13.20;99.90;;;;;;5086214;28;1110;-53
2021/11/28 13:57:04;;;;;;;;;;;13.20;99.90;;;;;;5119099;28;1431;-54
2021/11/28 13:59:32;;;;;;;;;;;13.10;99.90;;;;;;5119226;28;800;-55
2021/11/28 14:02:17;;;;;;;;;;;13.10;99.90;;;;;;5119419;28;823;-54
2021/11/28 14:04:48;;;;;;;;;;;13.10;99.90;;;;;;5119330;28;1095;-54
2021/11/28 14:07:22;;;;;;;;;;;13.10;99.90;;;;;;5119372;28;1910;-54
2021/11/28 14:09:49;;;;;;;;;;;13.00;99.90;;;;;;5118463;28;1034;-53
2021/11/28 14:12:17;;;;;;;;;;;13.00;99.90;;;;;;5118831;28;953;-53
2021/11/28 14:14:47;;;;;;;;;;;13.00;99.90;;;;;;5118920;28;951;-53
2021/11/28 14:17:13;;;;;;;;;;;13.00;99.90;;;;;;5118483;28;1023;-55
2021/11/28 14:19:40;;;;;;;;;;;13.00;99.90;;;;;;5118858;28;827;-54
2021/11/28 14:22:22;;;;;;;;;;;13.00;99.90;;;;;;5118234;28;1096;-53
2021/11/28 14:24:48;;;;;;;;;;;13.00;99.90;;;;;;5118592;28;824;-53
2021/11/28 14:27:15;;;;;;;;;;;12.90;99.90;;;;;;5118463;28;1973;-53
2021/11/28 14:29:42;;;;;;;;;;;12.90;99.90;;;;;;5118243;28;860;-54
2021/11/28 14:32:08;;;;;;;;;;;13.00;99.90;;;;;;5100746;28;940;-53
2021/11/28 14:34:34;;;;;;;;;;;13.00;99.90;;;;;;5118584;28;784;-53
2021/11/28 14:37:12;;;;;;;;;;;13.00;99.90;;;;;;5118409;28;905;-53
2021/11/28 14:39:39;;;;;;;;;;;13.10;99.90;;;;;;5100483;28;963;-52
2021/11/28 14:42:13;;;;;;;;;;;13.20;99.90;;;;;;5118246;28;949;-53
2021/11/28 14:44:47;;;;;;;;;;;13.20;99.90;;;;;;5118261;28;915;-53
2021/11/28 14:47:39;;;;;;;;;;;13.30;99.90;;;;;;5118270;28;1901;-53